createdAt,value
2018-10-09T00:00:52.156Z,7.10
2018-10-09T00:03:20.569Z,7.10
2018-10-09T00:05:49.059Z,7.10
2018-10-09T00:08:17.461Z,7.10
2018-10-09T00:10:45.890Z,7.20
2018-10-09T00:13:14.475Z,7.20
2018-10-09T00:15:43.015Z,7.20
2018-10-09T00:18:11.390Z,7.20
2018-10-09T00:20:39.910Z,7.20
2018-10-09T00:23:08.322Z,7.20
2018-10-09T00:25:37.043Z,7.10
2018-10-09T00:28:05.790Z,7.00
2018-10-09T00:30:34.298Z,7.00
2018-10-09T00:33:02.722Z,6.90
2018-10-09T00:35:31.332Z,6.70
2018-10-09T00:37:59.715Z,6.70
2018-10-09T00:40:28.070Z,6.60
2018-10-09T00:42:56.451Z,6.60
2018-10-09T00:45:24.855Z,6.60
2018-10-09T00:47:53.206Z,6.70
2018-10-09T00:50:21.666Z,6.80
2018-10-09T00:52:50.029Z,6.80
2018-10-09T00:55:18.407Z,6.70
2018-10-09T00:57:46.895Z,6.60
2018-10-09T01:00:15.252Z,6.60
2018-10-09T01:02:43.774Z,6.60
2018-10-09T01:05:12.245Z,6.50
2018-10-09T01:07:40.803Z,6.50
2018-10-09T01:10:09.174Z,6.40
2018-10-09T01:12:37.911Z,6.30
2018-10-09T01:15:06.331Z,6.40
2018-10-09T01:17:34.971Z,6.50
2018-10-09T01:20:03.410Z,6.60
2018-10-09T01:22:31.794Z,6.60
2018-10-09T01:25:00.187Z,6.70
2018-10-09T01:27:28.607Z,6.70
2018-10-09T01:29:57.060Z,6.60
2018-10-09T01:32:25.428Z,6.60
2018-10-09T01:34:54.150Z,6.50
2018-10-09T01:37:22.510Z,6.50
2018-10-09T01:39:50.920Z,6.50
2018-10-09T01:42:19.547Z,6.40
2018-10-09T01:44:47.904Z,6.30
2018-10-09T01:47:16.320Z,6.30
2018-10-09T01:49:45.402Z,6.30
2018-10-09T01:52:13.777Z,6.40
2018-10-09T01:54:42.586Z,6.40
2018-10-09T01:57:10.952Z,6.40
2018-10-09T01:59:39.655Z,6.50
2018-10-09T02:02:07.977Z,6.70
2018-10-09T02:04:36.620Z,6.80
2018-10-09T02:07:04.992Z,6.90
2018-10-09T02:09:33.316Z,6.90
2018-10-09T02:12:01.839Z,6.90
2018-10-09T02:14:30.168Z,6.90
2018-10-09T02:16:58.477Z,6.80
2018-10-09T02:19:26.814Z,6.80
2018-10-09T02:21:55.137Z,6.80
2018-10-09T02:24:23.481Z,6.80
2018-10-09T02:26:51.908Z,6.90
2018-10-09T02:29:20.225Z,6.90
2018-10-09T02:31:49.543Z,6.90
2018-10-09T02:34:17.929Z,6.90
2018-10-09T02:36:46.543Z,6.90
2018-10-09T02:39:14.851Z,6.90
2018-10-09T02:41:43.284Z,6.90
2018-10-09T02:44:11.670Z,6.80
2018-10-09T02:46:40.252Z,6.70
2018-10-09T02:49:08.591Z,6.70
2018-10-09T02:51:36.992Z,6.70
2018-10-09T02:54:05.360Z,6.70
2018-10-09T02:56:33.757Z,6.70
2018-10-09T02:59:02.078Z,6.70
2018-10-09T03:01:30.426Z,6.60
2018-10-09T03:03:59.120Z,6.50
2018-10-09T03:06:27.464Z,6.50
2018-10-09T03:08:55.825Z,6.50
2018-10-09T03:11:24.232Z,6.40
2018-10-09T03:13:52.574Z,6.50
2018-10-09T03:16:20.892Z,6.40
2018-10-09T03:18:49.495Z,6.40
2018-10-09T03:21:17.964Z,6.40
2018-10-09T03:23:46.540Z,6.40
2018-10-09T03:26:14.926Z,6.30
2018-10-09T03:28:43.499Z,6.30
2018-10-09T03:31:11.872Z,6.30
2018-10-09T03:33:40.612Z,6.30
2018-10-09T03:36:08.913Z,6.30
2018-10-09T03:38:37.318Z,6.30
2018-10-09T03:41:06.052Z,6.30
2018-10-09T03:43:34.420Z,6.20
2018-10-09T03:46:02.950Z,6.20
2018-10-09T03:48:31.285Z,6.20
2018-10-09T03:50:59.724Z,6.20
2018-10-09T03:53:28.096Z,6.20
2018-10-09T03:55:56.440Z,6.20
2018-10-09T03:58:24.807Z,6.30
2018-10-09T04:00:53.220Z,6.20
2018-10-09T04:03:21.584Z,6.30
2018-10-09T04:05:50.043Z,6.30
2018-10-09T04:08:18.394Z,6.30
2018-10-09T04:10:47.029Z,6.30
2018-10-09T04:13:15.373Z,6.30
2018-10-09T04:15:43.898Z,6.30
2018-10-09T04:18:12.282Z,6.30
2018-10-09T04:20:41.174Z,6.40
2018-10-09T04:23:09.583Z,6.40
2018-10-09T04:25:38.129Z,6.40
2018-10-09T04:28:06.547Z,6.40
2018-10-09T04:30:35.001Z,6.40
2018-10-09T04:33:03.393Z,6.50
2018-10-09T04:35:31.772Z,6.50
2018-10-09T04:38:00.295Z,6.50
2018-10-09T04:40:28.763Z,6.60
2018-10-09T04:42:57.156Z,6.70
2018-10-09T04:45:28.331Z,6.70
2018-10-09T04:47:57.891Z,6.70
2018-10-09T04:50:26.266Z,6.80
2018-10-09T04:52:54.597Z,6.80
2018-10-09T04:55:23.083Z,6.80
2018-10-09T04:57:51.592Z,6.80
2018-10-09T05:00:20.029Z,6.80
2018-10-09T05:02:48.659Z,6.80
2018-10-09T05:05:17.098Z,6.80
2018-10-09T05:07:45.536Z,6.70
2018-10-09T05:10:14.026Z,6.60
2018-10-09T05:12:42.628Z,6.60
2018-10-09T05:15:10.992Z,6.70
2018-10-09T05:17:39.470Z,6.70
2018-10-09T05:20:09.178Z,6.60
2018-10-09T05:22:37.589Z,6.70
2018-10-09T05:25:06.099Z,6.60
2018-10-09T05:27:34.495Z,6.60
2018-10-09T05:30:03.006Z,6.70
2018-10-09T05:32:31.655Z,6.70
2018-10-09T05:35:00.101Z,6.60
2018-10-09T05:37:28.496Z,6.70
2018-10-09T05:39:56.838Z,6.60
2018-10-09T05:42:25.188Z,6.60
2018-10-09T05:44:53.717Z,6.50
2018-10-09T05:47:22.808Z,6.50
2018-10-09T05:49:51.262Z,6.40
2018-10-09T05:52:19.715Z,6.50
2018-10-09T05:54:48.301Z,6.50
2018-10-09T05:57:16.859Z,6.40
2018-10-09T05:59:45.755Z,6.40
2018-10-09T06:02:14.258Z,6.40
2018-10-09T06:04:43.115Z,6.40
2018-10-09T06:07:11.720Z,6.50
2018-10-09T06:09:40.265Z,6.50
2018-10-09T06:12:08.743Z,6.60
2018-10-09T06:14:37.443Z,6.70
2018-10-09T06:17:05.865Z,6.80
2018-10-09T06:19:34.372Z,7.00
2018-10-09T06:22:02.774Z,7.00
2018-10-09T06:24:31.271Z,7.10
2018-10-09T06:26:59.716Z,7.20
2018-10-09T06:29:28.124Z,7.30
2018-10-09T06:31:56.556Z,7.50
2018-10-09T06:34:24.964Z,7.50
2018-10-09T06:36:53.407Z,7.70
2018-10-09T06:39:21.807Z,7.90
2018-10-09T06:41:50.300Z,8.10
2018-10-09T06:44:18.683Z,8.20
2018-10-09T06:46:48.329Z,8.30
2018-10-09T06:49:16.788Z,8.50
2018-10-09T06:51:47.569Z,8.50
2018-10-09T06:54:16.287Z,8.60
2018-10-09T06:56:44.701Z,8.60
2018-10-09T06:59:13.110Z,8.80
2018-10-09T07:01:41.489Z,9.00
2018-10-09T07:04:09.840Z,9.20
2018-10-09T07:06:38.233Z,9.20
2018-10-09T07:09:08.674Z,9.20
2018-10-09T07:11:37.082Z,9.10
2018-10-09T07:14:05.494Z,9.00
2018-10-09T07:16:33.959Z,9.00
2018-10-09T07:19:02.292Z,9.00
2018-10-09T07:21:45.265Z,9.20
2018-10-09T07:24:13.704Z,9.50
2018-10-09T07:26:42.112Z,9.70
2018-10-09T07:29:13.892Z,10.10
2018-10-09T07:31:42.320Z,10.90
2018-10-09T07:34:10.949Z,11.30
2018-10-09T07:36:39.381Z,11.50
2018-10-09T07:39:09.945Z,11.50
2018-10-09T07:41:38.376Z,11.50
2018-10-09T07:44:06.920Z,11.80
2018-10-09T07:46:35.220Z,11.90
2018-10-09T07:49:03.670Z,11.80
2018-10-09T07:51:32.025Z,11.80
2018-10-09T07:54:14.892Z,11.80
2018-10-09T07:56:43.196Z,11.80
2018-10-09T07:59:11.553Z,12.10
2018-10-09T08:01:40.308Z,11.90
2018-10-09T08:04:08.649Z,11.90
2018-10-09T08:06:36.989Z,12.00
2018-10-09T08:09:08.441Z,12.10
2018-10-09T08:11:36.749Z,12.20
2018-10-09T08:14:05.074Z,12.30
2018-10-09T08:16:33.411Z,12.30
2018-10-09T08:19:01.822Z,12.20
2018-10-09T08:21:30.162Z,12.20
2018-10-09T08:23:58.521Z,12.30
2018-10-09T08:26:26.892Z,12.50
2018-10-09T08:28:55.242Z,12.70
2018-10-09T08:31:23.629Z,12.90
2018-10-09T08:33:52.145Z,13.10
2018-10-09T08:36:20.471Z,13.20
2018-10-09T08:38:48.885Z,13.30
2018-10-09T08:41:17.319Z,13.40
2018-10-09T08:43:45.565Z,13.40
2018-10-09T08:46:13.968Z,13.50
2018-10-09T08:48:42.711Z,13.60
2018-10-09T08:51:11.070Z,13.50
2018-10-09T08:53:40.001Z,13.50
2018-10-09T08:56:08.320Z,13.60
2018-10-09T08:58:36.707Z,13.80
2018-10-09T09:01:05.676Z,14.00
2018-10-09T09:03:34.015Z,14.10
2018-10-09T09:06:02.298Z,14.30
2018-10-09T09:08:30.636Z,14.50
2018-10-09T09:10:59.095Z,14.60
2018-10-09T09:13:27.446Z,14.70
2018-10-09T09:15:55.825Z,14.90
2018-10-09T09:18:24.114Z,15.00
2018-10-09T09:20:52.457Z,15.20
2018-10-09T09:23:20.757Z,15.40
2018-10-09T09:25:49.397Z,15.50
2018-10-09T09:28:17.720Z,15.70
2018-10-09T09:30:46.070Z,15.80
2018-10-09T09:33:14.479Z,15.90
2018-10-09T09:35:42.745Z,16.10
2018-10-09T09:38:11.105Z,16.20
2018-10-09T09:40:39.688Z,16.30
2018-10-09T09:43:07.995Z,16.50
2018-10-09T09:45:36.341Z,16.60
2018-10-09T09:48:04.633Z,16.70
2018-10-09T09:50:32.933Z,16.90
2018-10-09T09:53:01.337Z,17.10
2018-10-09T09:55:29.677Z,17.30
2018-10-09T09:57:58.067Z,17.50
2018-10-09T10:00:31.740Z,17.60
2018-10-09T10:03:00.045Z,17.70
2018-10-09T10:05:28.339Z,17.70
2018-10-09T10:07:56.700Z,17.70
2018-10-09T10:10:25.005Z,17.80
2018-10-09T10:12:53.317Z,17.80
2018-10-09T10:15:21.661Z,17.90
2018-10-09T10:17:50.038Z,18.00
2018-10-09T10:20:18.377Z,18.00
2018-10-09T10:22:46.730Z,18.10
2018-10-09T10:25:15.042Z,18.20
2018-10-09T10:27:43.362Z,18.20
2018-10-09T10:30:11.721Z,18.30
2018-10-09T10:32:40.022Z,18.30
2018-10-09T10:35:08.429Z,18.30
2018-10-09T10:37:36.829Z,18.40
2018-10-09T10:40:05.677Z,18.30
2018-10-09T10:42:33.968Z,18.30
2018-10-09T10:45:02.339Z,18.30
2018-10-09T10:47:30.626Z,18.30
2018-10-09T10:49:58.932Z,18.20
2018-10-09T10:52:27.318Z,18.30
2018-10-09T10:54:55.742Z,18.30
2018-10-09T10:57:24.040Z,18.30
2018-10-09T10:59:52.416Z,18.30
2018-10-09T11:02:20.757Z,18.30
2018-10-09T11:04:49.066Z,18.30
2018-10-09T11:07:17.413Z,18.30
2018-10-09T11:09:45.712Z,18.30
2018-10-09T11:12:14.028Z,18.30
2018-10-09T11:14:42.485Z,18.40
2018-10-09T11:17:10.748Z,18.30
2018-10-09T11:19:39.405Z,18.30
2018-10-09T11:22:07.814Z,18.30
2018-10-09T11:24:36.270Z,18.20
2018-10-09T11:27:04.588Z,18.20
2018-10-09T11:29:32.932Z,18.20
2018-10-09T11:32:01.268Z,18.20
2018-10-09T11:34:29.586Z,18.20
2018-10-09T11:36:57.939Z,18.20
2018-10-09T11:39:26.284Z,18.30
2018-10-09T11:41:54.763Z,18.30
2018-10-09T11:44:23.114Z,18.30
2018-10-09T11:46:51.429Z,18.20
2018-10-09T11:49:19.753Z,18.20
2018-10-09T11:51:48.362Z,18.20
2018-10-09T11:54:16.814Z,18.10
2018-10-09T11:56:45.132Z,18.00
2018-10-09T11:59:13.560Z,18.10
2018-10-09T12:01:41.857Z,18.10
2018-10-09T12:04:10.282Z,18.10
2018-10-09T12:06:38.617Z,18.10
2018-10-09T12:09:09.625Z,18.10
2018-10-09T12:11:38.115Z,18.20
2018-10-09T12:14:06.520Z,18.20
2018-10-09T12:16:34.825Z,18.20
2018-10-09T12:19:03.129Z,18.20
2018-10-09T12:21:31.592Z,18.30
2018-10-09T12:24:00.010Z,18.30
2018-10-09T12:26:28.312Z,18.20
2018-10-09T12:28:56.670Z,18.20
2018-10-09T12:31:24.973Z,18.20
2018-10-09T12:33:53.313Z,18.20
2018-10-09T12:36:21.649Z,18.30
2018-10-09T12:38:49.948Z,18.20
2018-10-09T12:41:18.245Z,18.20
2018-10-09T12:43:46.571Z,18.20
2018-10-09T12:46:14.865Z,18.10
2018-10-09T12:48:43.173Z,18.00
2018-10-09T12:51:11.536Z,17.90
2018-10-09T12:53:39.957Z,18.00
2018-10-09T12:56:08.281Z,18.10
2018-10-09T12:58:36.690Z,18.00
2018-10-09T13:01:04.957Z,17.90
2018-10-09T13:03:33.250Z,18.00
2018-10-09T13:06:01.615Z,18.00
2018-10-09T13:08:29.917Z,18.00
2018-10-09T13:10:58.241Z,18.00
2018-10-09T13:13:26.583Z,18.10
2018-10-09T13:15:54.910Z,18.20
2018-10-09T13:18:23.420Z,18.30
2018-10-09T13:20:51.851Z,18.30
2018-10-09T13:23:20.086Z,18.30
2018-10-09T13:25:48.402Z,18.40
2018-10-09T13:28:16.733Z,18.30
2018-10-09T13:30:45.069Z,18.20
2018-10-09T13:33:13.359Z,18.10
2018-10-09T13:35:41.809Z,18.00
2018-10-09T13:38:10.141Z,18.00
2018-10-09T13:40:38.416Z,18.00
2018-10-09T13:43:07.444Z,18.10
2018-10-09T13:45:35.742Z,18.00
2018-10-09T13:48:04.065Z,18.00
2018-10-09T13:50:32.728Z,18.00
2018-10-09T13:53:01.024Z,18.00
2018-10-09T13:55:29.352Z,18.10
2018-10-09T13:57:57.676Z,18.00
2018-10-09T14:00:26.052Z,18.10
2018-10-09T14:02:54.605Z,18.10
2018-10-09T14:05:22.892Z,18.10
2018-10-09T14:07:51.196Z,18.20
2018-10-09T14:10:19.946Z,18.20
2018-10-09T14:12:48.267Z,18.40
2018-10-09T14:15:16.579Z,18.50
2018-10-09T14:17:44.861Z,18.60
2018-10-09T14:20:13.201Z,18.50
2018-10-09T14:22:41.562Z,18.50
2018-10-09T14:25:09.824Z,18.40
2018-10-09T14:27:38.229Z,18.40
2018-10-09T14:30:06.652Z,18.40
2018-10-09T14:32:34.948Z,18.40
2018-10-09T14:35:03.354Z,18.40
2018-10-09T14:37:31.624Z,18.50
2018-10-09T14:39:59.940Z,18.50
2018-10-09T14:42:28.276Z,18.60
2018-10-09T14:44:56.591Z,18.60
2018-10-09T14:47:25.176Z,18.60
2018-10-09T14:49:53.740Z,18.60
2018-10-09T14:52:22.037Z,18.70
2018-10-09T14:54:50.372Z,18.60
2018-10-09T14:57:18.776Z,18.50
2018-10-09T14:59:47.026Z,18.60
2018-10-09T15:02:15.328Z,18.60
2018-10-09T15:04:43.663Z,18.40
2018-10-09T15:07:11.949Z,18.30
2018-10-09T15:09:40.292Z,18.10
2018-10-09T15:12:08.581Z,18.00
2018-10-09T15:14:36.917Z,18.00
2018-10-09T15:17:05.252Z,17.90
2018-10-09T15:19:33.565Z,17.90
2018-10-09T15:22:01.858Z,17.90
2018-10-09T15:24:30.137Z,17.90
2018-10-09T15:26:58.518Z,17.80
2018-10-09T15:29:26.828Z,17.70
2018-10-09T15:31:55.123Z,17.70
2018-10-09T15:34:23.432Z,17.50
2018-10-09T15:36:51.721Z,17.50
2018-10-09T15:39:20.009Z,17.50
2018-10-09T15:41:48.342Z,17.30
2018-10-09T15:44:16.663Z,17.30
2018-10-09T15:46:44.956Z,17.20
2018-10-09T15:49:13.288Z,17.20
2018-10-09T15:51:41.572Z,17.10
2018-10-09T15:54:09.883Z,17.10
2018-10-09T15:56:38.286Z,17.00
2018-10-09T15:59:06.596Z,16.90
2018-10-09T16:01:34.889Z,16.80
2018-10-09T16:04:03.296Z,16.70
2018-10-09T16:06:31.556Z,16.60
2018-10-09T16:08:59.992Z,16.40
2018-10-09T16:11:28.782Z,16.30
2018-10-09T16:13:57.078Z,16.30
2018-10-09T16:16:25.369Z,16.20
2018-10-09T16:18:53.688Z,16.10
2018-10-09T16:21:22.001Z,15.90
2018-10-09T16:23:50.293Z,15.80
2018-10-09T16:26:18.616Z,15.70
2018-10-09T16:28:46.953Z,15.50
2018-10-09T16:31:15.247Z,15.50
2018-10-09T16:33:43.585Z,15.40
2018-10-09T16:36:11.877Z,15.30
2018-10-09T16:38:40.173Z,15.20
2018-10-09T16:41:08.977Z,15.20
2018-10-09T16:43:37.324Z,15.20
2018-10-09T16:46:06.028Z,15.20
2018-10-09T16:48:34.364Z,15.10
2018-10-09T16:51:02.739Z,15.20
2018-10-09T16:53:31.101Z,15.20
2018-10-09T16:55:59.661Z,15.10
2018-10-09T16:58:27.948Z,15.10
2018-10-09T17:00:56.250Z,15.00
2018-10-09T17:03:24.596Z,14.90
2018-10-09T17:05:52.897Z,14.80
2018-10-09T17:08:21.189Z,14.60
2018-10-09T17:10:49.528Z,14.50
2018-10-09T17:13:17.822Z,14.40
2018-10-09T17:15:46.179Z,14.10
2018-10-09T17:18:14.492Z,14.00
2018-10-09T17:20:42.824Z,13.80
2018-10-09T17:23:11.113Z,13.60
2018-10-09T17:25:39.428Z,13.50
2018-10-09T17:28:07.766Z,13.50
2018-10-09T17:30:36.126Z,13.40
2018-10-09T17:33:04.718Z,13.30
2018-10-09T17:35:33.027Z,13.20
2018-10-09T17:38:01.477Z,13.10
2018-10-09T17:40:29.805Z,13.10
2018-10-09T17:42:58.121Z,13.00
2018-10-09T17:45:26.421Z,12.90
2018-10-09T17:47:54.753Z,12.80
2018-10-09T17:50:23.068Z,12.60
2018-10-09T17:52:51.662Z,12.50
2018-10-09T17:55:20.155Z,12.40
2018-10-09T17:57:48.452Z,12.30
2018-10-09T18:00:16.825Z,12.10
2018-10-09T18:02:45.170Z,12.00
2018-10-09T18:05:14.389Z,11.90
2018-10-09T18:08:14.000Z,11.80
2018-10-09T18:10:42.356Z,11.70
2018-10-09T18:13:11.537Z,11.70
2018-10-09T18:15:40.017Z,11.60
2018-10-09T18:18:08.381Z,11.50
2018-10-09T18:20:37.002Z,11.30
2018-10-09T18:23:05.465Z,11.30
2018-10-09T18:25:33.798Z,11.30
2018-10-09T18:28:02.522Z,11.40
2018-10-09T18:30:31.210Z,11.40
2018-10-09T18:32:59.627Z,11.40
2018-10-09T18:35:27.906Z,11.30
2018-10-09T18:37:56.277Z,11.20
2018-10-09T18:40:24.803Z,11.10
2018-10-09T18:42:53.157Z,11.00
2018-10-09T18:45:21.645Z,10.90
2018-10-09T18:47:50.041Z,10.80
2018-10-09T18:50:18.371Z,10.70
2018-10-09T18:52:46.713Z,10.70
2018-10-09T18:55:16.512Z,10.60
2018-10-09T18:57:45.215Z,10.80
2018-10-09T19:00:14.133Z,10.80
2018-10-09T19:02:42.513Z,10.90
2018-10-09T19:05:11.336Z,10.70
2018-10-09T19:07:40.057Z,10.60
2018-10-09T19:10:08.947Z,10.60
2018-10-09T19:12:37.361Z,10.50
2018-10-09T19:15:05.993Z,10.30
2018-10-09T19:17:34.323Z,10.30
2018-10-09T19:20:02.688Z,10.10
2018-10-09T19:22:31.122Z,10.00
2018-10-09T19:24:59.557Z,10.00
2018-10-09T19:27:27.952Z,9.90
2018-10-09T19:29:56.369Z,9.80
2018-10-09T19:32:24.824Z,9.70
2018-10-09T19:34:53.109Z,9.60
2018-10-09T19:37:21.565Z,9.60
2018-10-09T19:39:49.906Z,9.50
2018-10-09T19:42:18.253Z,9.30
2018-10-09T19:44:46.656Z,9.20
2018-10-09T19:47:14.981Z,9.20
2018-10-09T19:49:43.329Z,9.30
2018-10-09T19:52:11.816Z,9.20
2018-10-09T19:54:40.223Z,9.10
2018-10-09T19:57:08.586Z,9.00
2018-10-09T19:59:37.066Z,8.90
2018-10-09T20:02:05.746Z,8.90
2018-10-09T20:04:34.080Z,8.90
2018-10-09T20:07:02.692Z,8.80
2018-10-09T20:09:31.250Z,8.80
2018-10-09T20:11:59.670Z,8.70
2018-10-09T20:14:28.209Z,8.60
2018-10-09T20:16:56.606Z,8.60
2018-10-09T20:19:24.937Z,8.60
2018-10-09T20:21:53.307Z,8.60
2018-10-09T20:24:21.738Z,8.40
2018-10-09T20:26:50.013Z,8.30
2018-10-09T20:29:18.354Z,8.30
2018-10-09T20:31:46.939Z,8.30
2018-10-09T20:34:15.343Z,8.20
2018-10-09T20:36:43.731Z,8.20
2018-10-09T20:39:12.595Z,8.30
2018-10-09T20:41:41.035Z,8.30
2018-10-09T20:44:10.032Z,8.20
2018-10-09T20:46:38.364Z,8.20
2018-10-09T20:49:07.445Z,8.10
2018-10-09T20:51:35.905Z,8.20
2018-10-09T20:54:04.288Z,8.30
2018-10-09T20:56:32.721Z,8.20
2018-10-09T20:59:01.077Z,8.10
2018-10-09T21:01:29.425Z,7.90
2018-10-09T21:03:58.127Z,7.80
2018-10-09T21:06:26.553Z,7.70
2018-10-09T21:08:54.869Z,7.60
2018-10-09T21:11:23.192Z,7.50
2018-10-09T21:13:51.566Z,7.50
2018-10-09T21:16:20.114Z,7.70
2018-10-09T21:18:48.436Z,7.80
2018-10-09T21:21:16.999Z,7.90
2018-10-09T21:23:45.316Z,8.00
2018-10-09T21:26:14.493Z,7.90
2018-10-09T21:28:43.930Z,7.90
2018-10-09T21:31:12.435Z,7.80
2018-10-09T21:33:40.753Z,7.70
2018-10-09T21:36:09.321Z,7.50
2018-10-09T21:38:37.982Z,7.30
2018-10-09T21:41:06.313Z,7.20
2018-10-09T21:43:34.673Z,7.20
2018-10-09T21:46:03.028Z,7.10
2018-10-09T21:48:31.364Z,7.10
2018-10-09T21:50:59.734Z,7.00
2018-10-09T21:53:28.053Z,7.00
2018-10-09T21:55:56.384Z,7.10
2018-10-09T21:58:24.815Z,7.20
2018-10-09T22:00:58.461Z,7.30
2018-10-09T22:03:26.840Z,7.30
2018-10-09T22:05:56.587Z,7.30
2018-10-09T22:08:25.119Z,7.30
2018-10-09T22:10:53.498Z,7.40
2018-10-09T22:13:21.913Z,7.40
2018-10-09T22:15:50.251Z,7.40
2018-10-09T22:18:18.736Z,7.50
2018-10-09T22:20:47.048Z,7.50
2018-10-09T22:23:15.380Z,7.50
2018-10-09T22:25:43.821Z,7.30
2018-10-09T22:28:12.300Z,7.20
2018-10-09T22:30:40.857Z,7.10
2018-10-09T22:33:09.469Z,7.10
2018-10-09T22:35:37.924Z,7.10
2018-10-09T22:38:06.325Z,7.20
2018-10-09T22:40:34.705Z,7.10
2018-10-09T22:43:03.017Z,6.90
2018-10-09T22:45:31.345Z,6.70
2018-10-09T22:48:00.049Z,6.70
2018-10-09T22:50:28.393Z,6.50
2018-10-09T22:52:56.748Z,6.40
2018-10-09T22:55:25.093Z,6.30
2018-10-09T22:57:53.421Z,6.30
2018-10-09T23:00:21.912Z,6.30
2018-10-09T23:02:50.280Z,6.10
2018-10-09T23:05:18.605Z,6.10
2018-10-09T23:07:46.940Z,6.10
2018-10-09T23:10:15.557Z,6.10
2018-10-09T23:12:44.044Z,6.10
2018-10-09T23:15:12.412Z,6.10
2018-10-09T23:17:40.740Z,6.20
2018-10-09T23:20:09.381Z,6.30
2018-10-09T23:22:37.987Z,6.30
2018-10-09T23:25:06.373Z,6.30
2018-10-09T23:27:34.726Z,6.30
2018-10-09T23:30:03.221Z,6.20
2018-10-09T23:32:31.587Z,6.30
2018-10-09T23:34:59.937Z,6.30
2018-10-09T23:37:28.279Z,6.40
2018-10-09T23:39:56.915Z,6.50
2018-10-09T23:42:25.253Z,6.50
2018-10-09T23:44:53.574Z,6.50
2018-10-09T23:47:22.189Z,6.50
2018-10-09T23:49:50.588Z,6.50
2018-10-09T23:52:19.150Z,6.50
2018-10-09T23:54:47.576Z,6.30
2018-10-09T23:57:16.018Z,6.30
2018-10-09T23:59:44.345Z,6.20
